createdAt,value
2022-12-25T00:02:09.725Z,171.97
2022-12-25T00:04:37.791Z,43.17
2022-12-25T00:07:05.851Z,48.90
2022-12-25T00:09:33.931Z,127.87
2022-12-25T00:12:03.347Z,33.97
2022-12-25T00:14:31.420Z,101.90
2022-12-25T00:16:59.861Z,63.17
2022-12-25T00:19:27.943Z,41.73
2022-12-25T00:21:55.997Z,167.50
2022-12-25T00:24:24.084Z,305.57
2022-12-25T00:26:52.114Z,189.33
2022-12-25T00:29:21.562Z,51.53
2022-12-25T00:31:49.683Z,39.40
2022-12-25T00:34:17.784Z,39.60
2022-12-25T00:36:45.813Z,165.70
2022-12-25T00:39:13.864Z,88.20
2022-12-25T00:41:59.089Z,141.97
2022-12-25T00:44:29.218Z,384.43
2022-12-25T00:46:57.329Z,142.30
2022-12-25T00:49:25.911Z,158.20
2022-12-25T00:51:54.327Z,54.83
2022-12-25T00:54:22.740Z,476.50
2022-12-25T00:56:50.809Z,311.13
2022-12-25T00:59:18.866Z,73.73
2022-12-25T01:01:48.514Z,96.50
2022-12-25T01:04:16.656Z,64.07
2022-12-25T01:06:44.706Z,314.93
2022-12-25T01:09:30.320Z,90.60
2022-12-25T01:11:58.349Z,392.70
2022-12-25T01:14:26.449Z,121.97
2022-12-25T01:16:55.926Z,464.70
2022-12-25T01:19:24.012Z,127.37
2022-12-25T01:21:52.104Z,149.37
2022-12-25T01:24:20.170Z,151.27
2022-12-25T01:26:48.350Z,406.27
2022-12-25T01:29:16.416Z,442.87
2022-12-25T01:31:44.556Z,166.13
2022-12-25T01:34:14.085Z,93.03
2022-12-25T01:36:42.137Z,179.13
2022-12-25T01:39:10.293Z,261.63
2022-12-25T01:41:38.350Z,175.57
2022-12-25T01:44:08.990Z,231.00
2022-12-25T01:46:37.276Z,171.10
2022-12-25T01:49:09.095Z,127.27
2022-12-25T01:51:42.037Z,180.33
2022-12-25T01:54:13.667Z,142.97
2022-12-25T01:56:43.898Z,196.50
2022-12-25T01:59:14.803Z,254.50
2022-12-25T02:01:43.186Z,125.40
2022-12-25T02:04:18.197Z,154.37
2022-12-25T02:06:49.073Z,129.93
2022-12-25T02:09:17.306Z,321.77
2022-12-25T02:11:57.656Z,506.87
2022-12-25T02:14:26.760Z,169.90
2022-12-25T02:17:00.457Z,133.27
2022-12-25T02:19:52.594Z,238.67
2022-12-25T02:22:34.332Z,231.07
2022-12-25T02:25:15.889Z,150.53
2022-12-25T02:28:01.236Z,258.20
2022-12-25T02:30:36.411Z,423.80
2022-12-25T02:33:27.716Z,201.87
2022-12-25T02:35:58.116Z,403.60
2022-12-25T02:38:32.575Z,207.47
2022-12-25T02:41:08.276Z,287.50
2022-12-25T02:43:59.539Z,370.17
2022-12-25T02:46:47.760Z,481.97
2022-12-25T02:49:38.805Z,269.37
2022-12-25T02:52:28.399Z,121.13
2022-12-25T02:55:19.309Z,129.23
2022-12-25T02:58:09.275Z,152.07
2022-12-25T03:00:59.871Z,165.67
2022-12-25T03:03:49.802Z,143.10
2022-12-25T03:06:38.366Z,163.60
2022-12-25T03:09:22.491Z,311.23
2022-12-25T03:11:58.053Z,263.37
2022-12-25T03:14:52.167Z,176.50
2022-12-25T03:17:21.992Z,258.97
2022-12-25T03:20:08.732Z,165.03
2022-12-25T03:22:55.161Z,134.13
2022-12-25T03:25:40.702Z,279.87
2022-12-25T03:28:08.755Z,246.47
2022-12-25T03:31:00.336Z,752.67
2022-12-25T03:33:44.987Z,266.30
2022-12-25T03:36:18.835Z,191.57
2022-12-25T03:39:21.827Z,314.33
2022-12-25T03:42:11.398Z,296.57
2022-12-25T03:45:03.059Z,190.97
2022-12-25T03:47:52.013Z,227.47
2022-12-25T03:50:44.404Z,394.53
2022-12-25T03:53:35.161Z,146.90
2022-12-25T03:56:21.903Z,164.23
2022-12-25T03:59:15.450Z,78.27
2022-12-25T04:02:04.976Z,65.63
2022-12-25T04:04:50.490Z,296.43
2022-12-25T04:07:37.441Z,64.73
2022-12-25T04:10:23.989Z,74.87
2022-12-25T04:13:09.511Z,557.67
2022-12-25T04:15:54.982Z,152.30
2022-12-25T04:18:40.474Z,343.63
2022-12-25T04:21:26.037Z,71.40
2022-12-25T04:24:13.047Z,46.67
2022-12-25T04:26:58.597Z,150.60
2022-12-25T04:29:44.150Z,336.90
2022-12-25T04:32:29.807Z,140.83
2022-12-25T04:35:15.142Z,347.00
2022-12-25T04:37:43.214Z,50.37
2022-12-25T04:40:13.134Z,207.10
2022-12-25T04:42:41.262Z,59.17
2022-12-25T04:45:10.672Z,112.07
2022-12-25T04:47:39.030Z,413.97
2022-12-25T04:50:08.688Z,85.60
2022-12-25T04:52:37.645Z,130.27
2022-12-25T04:55:06.864Z,63.83
2022-12-25T04:57:36.436Z,143.17
2022-12-25T05:00:06.132Z,104.73
2022-12-25T05:02:34.857Z,483.90
2022-12-25T05:05:03.112Z,325.87
2022-12-25T05:07:31.181Z,328.90
2022-12-25T05:09:59.355Z,70.80
2022-12-25T05:12:27.456Z,54.80
2022-12-25T05:14:56.842Z,64.20
2022-12-25T05:17:24.936Z,74.87
2022-12-25T05:19:53.072Z,326.47
2022-12-25T05:22:21.129Z,157.43
2022-12-25T05:24:49.180Z,75.67
2022-12-25T05:27:17.831Z,231.07
2022-12-25T05:29:45.946Z,51.13
2022-12-25T05:32:15.361Z,134.67
2022-12-25T05:34:43.456Z,83.30
2022-12-25T05:37:11.502Z,463.40
2022-12-25T05:39:39.561Z,653.30
2022-12-25T05:42:07.626Z,122.13
2022-12-25T05:44:35.667Z,181.93
2022-12-25T05:47:03.749Z,619.10
2022-12-25T05:49:33.407Z,144.40
2022-12-25T05:52:01.441Z,835.00
2022-12-25T05:54:29.527Z,678.57
2022-12-25T05:56:57.551Z,352.73
2022-12-25T05:59:25.814Z,177.73
2022-12-25T06:01:53.947Z,239.83
2022-12-25T06:04:22.070Z,53.60
2022-12-25T06:06:51.483Z,167.13
2022-12-25T06:09:20.019Z,478.73
2022-12-25T06:11:48.094Z,238.83
2022-12-25T06:14:17.081Z,237.60
2022-12-25T06:16:45.201Z,346.20
2022-12-25T06:19:13.333Z,845.10
2022-12-25T06:21:41.377Z,528.90
2022-12-25T06:24:13.458Z,142.73
2022-12-25T06:26:45.723Z,433.70
2022-12-25T06:29:13.792Z,199.57
2022-12-25T06:31:41.912Z,418.37
2022-12-25T06:34:10.278Z,265.37
2022-12-25T06:36:39.537Z,243.67
2022-12-25T06:39:07.587Z,110.57
2022-12-25T06:41:37.263Z,291.73
2022-12-25T06:44:05.368Z,133.03
2022-12-25T06:46:33.436Z,199.67
2022-12-25T06:49:01.989Z,237.13
2022-12-25T06:51:31.705Z,464.73
2022-12-25T06:54:03.114Z,583.20
2022-12-25T06:56:32.170Z,314.87
2022-12-25T06:59:03.400Z,818.63
2022-12-25T07:01:35.110Z,843.93
2022-12-25T07:04:05.928Z,169.77
2022-12-25T07:06:34.007Z,766.87
2022-12-25T07:09:02.257Z,307.83
2022-12-25T07:11:30.350Z,522.63
2022-12-25T07:13:58.469Z,407.07
2022-12-25T07:16:28.092Z,253.63
2022-12-25T07:18:56.196Z,372.63
2022-12-25T07:21:24.375Z,56.13
2022-12-25T07:23:52.461Z,818.27
2022-12-25T07:26:21.002Z,319.80
2022-12-25T07:28:49.088Z,179.80
2022-12-25T07:31:19.077Z,483.70
2022-12-25T07:33:48.720Z,686.23
2022-12-25T07:36:16.893Z,1432.47
2022-12-25T07:38:45.147Z,356.97
2022-12-25T07:41:13.936Z,410.23
2022-12-25T07:43:42.449Z,456.20
2022-12-25T07:46:11.044Z,556.13
2022-12-25T07:48:39.261Z,1008.03
2022-12-25T07:51:11.852Z,897.40
2022-12-25T07:53:41.123Z,433.27
2022-12-25T07:56:12.939Z,1460.27
2022-12-25T07:58:41.629Z,1032.20
2022-12-25T08:01:12.917Z,286.17
2022-12-25T08:03:41.317Z,1557.23
2022-12-25T08:06:12.346Z,825.53
2022-12-25T08:08:42.191Z,1242.20
2022-12-25T08:11:11.040Z,181.93
2022-12-25T08:13:39.383Z,1050.77
2022-12-25T08:16:10.014Z,327.97
2022-12-25T08:18:38.871Z,1240.97
2022-12-25T08:21:09.427Z,1180.20
2022-12-25T08:23:40.970Z,1112.83
2022-12-25T08:26:11.742Z,265.37
2022-12-25T08:28:40.111Z,1037.73
2022-12-25T08:31:10.116Z,1096.37
2022-12-25T08:33:39.469Z,256.63
2022-12-25T08:36:11.038Z,878.23
2022-12-25T08:38:41.465Z,589.07
2022-12-25T08:41:09.790Z,1615.97
2022-12-25T08:43:37.850Z,1999.90
2022-12-25T08:46:06.359Z,334.50
2022-12-25T08:48:34.965Z,515.87
2022-12-25T08:51:03.870Z,631.27
2022-12-25T08:53:32.272Z,1210.77
2022-12-25T08:56:04.602Z,811.30
2022-12-25T08:58:33.893Z,742.87
2022-12-25T09:01:02.303Z,702.40
2022-12-25T09:03:32.252Z,798.30
2022-12-25T09:06:04.820Z,1837.83
2022-12-25T09:08:32.979Z,447.20
2022-12-25T09:11:04.491Z,721.33
2022-12-25T09:13:33.024Z,311.90
2022-12-25T09:16:01.616Z,1288.20
2022-12-25T09:18:30.073Z,1137.43
2022-12-25T09:21:01.519Z,409.23
2022-12-25T09:23:30.177Z,606.57
2022-12-25T09:26:00.122Z,604.00
2022-12-25T09:28:30.456Z,1109.17
2022-12-25T09:30:58.842Z,1572.70
2022-12-25T09:33:27.295Z,1999.90
2022-12-25T09:35:56.127Z,1999.90
2022-12-25T09:38:24.567Z,1331.30
2022-12-25T09:41:00.717Z,1441.23
2022-12-25T09:43:33.679Z,586.10
2022-12-25T09:46:05.341Z,831.97
2022-12-25T09:48:36.821Z,618.20
2022-12-25T09:51:10.497Z,773.80
2022-12-25T09:53:41.592Z,369.33
2022-12-25T09:56:13.686Z,1999.90
2022-12-25T09:58:43.359Z,933.73
2022-12-25T10:01:20.887Z,692.27
2022-12-25T10:04:14.548Z,507.27
2022-12-25T10:06:54.564Z,432.70
2022-12-25T10:09:35.577Z,1036.57
2022-12-25T10:12:23.933Z,1815.20
2022-12-25T10:15:16.867Z,374.30
2022-12-25T10:17:58.967Z,1999.90
2022-12-25T10:20:41.477Z,1240.87
2022-12-25T10:23:17.030Z,1204.70
2022-12-25T10:25:47.590Z,1962.50
2022-12-25T10:28:20.070Z,1999.90
2022-12-25T10:30:51.190Z,1999.90
2022-12-25T10:33:19.425Z,608.90
2022-12-25T10:35:47.633Z,671.37
2022-12-25T10:38:17.339Z,940.73
2022-12-25T10:40:57.080Z,117.77
2022-12-25T10:43:30.953Z,1203.37
2022-12-25T10:46:00.863Z,1055.50
2022-12-25T10:48:31.539Z,1839.00
2022-12-25T10:50:59.930Z,1999.90
2022-12-25T10:53:29.757Z,1054.57
2022-12-25T10:56:00.227Z,1421.20
2022-12-25T10:58:28.990Z,1033.03
2022-12-25T11:01:03.406Z,835.93
2022-12-25T11:03:33.529Z,598.70
2022-12-25T11:06:03.385Z,381.07
2022-12-25T11:08:34.673Z,550.47
2022-12-25T11:11:06.279Z,578.90
2022-12-25T11:13:37.413Z,1725.17
2022-12-25T11:16:10.726Z,954.43
2022-12-25T11:18:47.292Z,519.23
2022-12-25T11:21:18.483Z,1504.07
2022-12-25T11:23:49.336Z,1199.90
2022-12-25T11:26:18.630Z,1634.00
2022-12-25T11:28:47.446Z,422.13
2022-12-25T11:31:20.569Z,1113.97
2022-12-25T11:33:54.826Z,709.40
2022-12-25T11:36:30.089Z,249.13
2022-12-25T11:39:02.482Z,278.00
2022-12-25T11:41:35.299Z,1235.33
2022-12-25T11:44:07.344Z,727.60
2022-12-25T11:46:42.156Z,241.00
2022-12-25T11:49:16.550Z,399.20
2022-12-25T11:51:48.398Z,916.43
2022-12-25T11:54:23.637Z,191.37
2022-12-25T11:56:52.260Z,338.00
2022-12-25T11:59:26.683Z,276.17
2022-12-25T12:02:00.130Z,1142.40
2022-12-25T12:04:38.553Z,436.73
2022-12-25T12:07:18.021Z,200.33
2022-12-25T12:09:52.543Z,405.60
2022-12-25T12:12:27.620Z,59.27
2022-12-25T12:15:02.526Z,247.17
2022-12-25T12:17:33.920Z,535.00
2022-12-25T12:20:12.812Z,497.50
2022-12-25T12:22:49.448Z,54.47
2022-12-25T12:25:19.493Z,228.53
2022-12-25T12:27:53.602Z,495.13
2022-12-25T12:30:28.337Z,546.43
2022-12-25T12:33:01.218Z,379.90
2022-12-25T12:35:31.524Z,258.77
2022-12-25T12:38:03.295Z,671.17
2022-12-25T12:40:35.384Z,373.67
2022-12-25T12:43:03.926Z,182.27
2022-12-25T12:45:35.653Z,796.70
2022-12-25T12:48:15.403Z,603.23
2022-12-25T12:50:43.982Z,755.23
2022-12-25T12:53:29.497Z,307.43
2022-12-25T12:55:57.642Z,849.20
2022-12-25T12:58:31.012Z,1238.03
2022-12-25T13:01:09.859Z,1366.90
2022-12-25T13:04:01.787Z,527.10
2022-12-25T13:06:39.230Z,1504.20
2022-12-25T13:09:18.578Z,475.10
2022-12-25T13:11:46.966Z,461.80
2022-12-25T13:14:17.590Z,1126.17
2022-12-25T13:16:48.638Z,1514.00
2022-12-25T13:19:21.885Z,1999.90
2022-12-25T13:21:54.574Z,913.73
2022-12-25T13:24:24.846Z,599.37
2022-12-25T13:26:53.212Z,652.07
2022-12-25T13:29:29.704Z,1001.13
2022-12-25T13:31:58.828Z,1986.47
2022-12-25T13:34:32.734Z,602.80
2022-12-25T13:37:01.438Z,649.57
2022-12-25T13:39:30.026Z,1551.63
2022-12-25T13:42:09.383Z,950.90
2022-12-25T13:44:45.676Z,509.03
2022-12-25T13:47:25.752Z,1772.30
2022-12-25T13:49:56.899Z,1935.63
2022-12-25T13:52:33.773Z,1376.00
2022-12-25T13:55:03.057Z,869.63
2022-12-25T13:57:35.281Z,1159.60
2022-12-25T14:00:04.351Z,590.73
2022-12-25T14:02:36.123Z,714.17
2022-12-25T14:05:22.815Z,775.07
2022-12-25T14:07:53.186Z,1019.00
2022-12-25T14:10:22.156Z,430.97
2022-12-25T14:12:51.411Z,1201.50
2022-12-25T14:15:22.363Z,494.50
2022-12-25T14:17:51.757Z,199.67
2022-12-25T14:20:29.786Z,807.03
2022-12-25T14:22:59.714Z,988.83
2022-12-25T14:25:31.445Z,1041.67
2022-12-25T14:28:00.124Z,673.10
2022-12-25T14:30:30.441Z,965.07
2022-12-25T14:32:58.970Z,522.27
2022-12-25T14:35:28.549Z,408.83
2022-12-25T14:38:00.390Z,889.10
2022-12-25T14:40:31.556Z,1297.10
2022-12-25T14:43:01.113Z,544.20
2022-12-25T14:45:32.214Z,935.67
2022-12-25T14:48:03.068Z,790.57
2022-12-25T14:50:37.371Z,739.77
2022-12-25T14:53:07.402Z,120.67
2022-12-25T14:55:35.726Z,128.07
2022-12-25T14:58:06.335Z,1054.30
2022-12-25T15:00:36.573Z,39.27
2022-12-25T15:03:07.749Z,485.60
2022-12-25T15:05:38.844Z,498.83
2022-12-25T15:08:25.426Z,1161.77
2022-12-25T15:11:01.087Z,210.40
2022-12-25T15:13:30.908Z,642.20
2022-12-25T15:16:02.944Z,500.77
2022-12-25T15:18:35.422Z,1314.97
2022-12-25T15:21:05.029Z,962.37
2022-12-25T15:23:33.113Z,275.40
2022-12-25T15:26:01.273Z,767.47
2022-12-25T15:28:29.318Z,1247.63
2022-12-25T15:30:57.763Z,1468.63
2022-12-25T15:33:25.853Z,984.37
2022-12-25T15:35:53.897Z,1059.37
2022-12-25T15:38:23.315Z,557.00
2022-12-25T15:40:51.439Z,802.97
2022-12-25T15:46:09.186Z,1358.17
2022-12-25T15:48:37.278Z,901.57
2022-12-25T15:51:05.536Z,1999.90
2022-12-25T15:53:34.954Z,612.93
2022-12-25T15:56:03.052Z,1897.30
2022-12-25T15:58:31.084Z,1709.17
2022-12-25T16:00:59.177Z,793.03
2022-12-25T16:03:27.370Z,1987.50
2022-12-25T16:05:55.921Z,418.77
2022-12-25T16:08:24.027Z,1572.37
2022-12-25T16:10:53.937Z,1999.90
2022-12-25T16:13:23.173Z,1401.03
2022-12-25T16:15:51.376Z,1702.70
2022-12-25T16:18:19.453Z,1212.47
2022-12-25T16:20:47.501Z,1999.90
2022-12-25T16:23:15.530Z,753.10
2022-12-25T16:25:43.553Z,556.47
2022-12-25T16:28:13.049Z,1806.53
2022-12-25T16:30:42.020Z,797.10
2022-12-25T16:33:11.969Z,502.80
2022-12-25T16:35:40.298Z,1442.30
2022-12-25T16:38:08.675Z,530.40
2022-12-25T16:40:36.861Z,234.30
2022-12-25T16:43:05.039Z,590.00
2022-12-25T16:45:39.025Z,174.93
2022-12-25T16:48:08.266Z,697.00
2022-12-25T16:50:38.627Z,398.47
2022-12-25T16:53:06.945Z,36.83
2022-12-25T16:55:36.768Z,465.93
2022-12-25T16:58:05.208Z,108.87
2022-12-25T17:00:34.671Z,586.67
2022-12-25T17:03:02.855Z,469.10
2022-12-25T17:05:31.148Z,372.67
2022-12-25T17:07:59.509Z,134.80
2022-12-25T17:10:27.608Z,161.90
2022-12-25T17:12:55.775Z,218.07
2022-12-25T17:15:24.100Z,1175.57
2022-12-25T17:17:53.619Z,1815.20
2022-12-25T17:20:21.655Z,48.50
2022-12-25T17:22:50.231Z,451.43
2022-12-25T17:25:18.423Z,1035.27
2022-12-25T17:27:50.172Z,365.87
2022-12-25T17:30:18.346Z,417.77
2022-12-25T17:32:47.166Z,368.00
2022-12-25T17:35:17.845Z,451.90
2022-12-25T17:37:45.917Z,1172.13
2022-12-25T17:40:14.831Z,175.57
2022-12-25T17:42:42.930Z,515.53
2022-12-25T17:45:12.211Z,636.47
2022-12-25T17:47:40.267Z,920.47
2022-12-25T17:50:09.259Z,413.97
2022-12-25T17:52:38.703Z,767.77
2022-12-25T17:55:07.763Z,412.30
2022-12-25T17:57:35.916Z,343.20
2022-12-25T18:00:03.994Z,367.90
2022-12-25T18:02:32.191Z,470.93
2022-12-25T18:05:00.383Z,508.13
2022-12-25T18:07:28.440Z,559.27
2022-12-25T18:09:57.959Z,966.60
2022-12-25T18:12:26.019Z,957.93
2022-12-25T18:14:54.191Z,645.10
2022-12-25T18:17:23.298Z,1028.77
2022-12-25T18:19:51.951Z,655.03
2022-12-25T18:22:20.014Z,231.37
2022-12-25T18:24:48.089Z,1332.83
2022-12-25T18:27:17.526Z,1025.97
2022-12-25T18:29:46.069Z,1784.03
2022-12-25T18:32:14.107Z,1235.50
2022-12-25T18:34:42.274Z,465.37
2022-12-25T18:37:10.315Z,145.60
2022-12-25T18:39:38.371Z,249.67
2022-12-25T18:42:23.974Z,200.63
2022-12-25T18:44:53.370Z,1818.73
2022-12-25T18:47:21.438Z,548.63
2022-12-25T18:49:49.678Z,366.67
2022-12-25T18:52:49.977Z,1211.30
2022-12-25T18:55:06.773Z,44.97
2022-12-25T18:57:35.405Z,896.83
2022-12-25T19:00:06.154Z,1292.90
2022-12-25T19:02:34.428Z,888.20
2022-12-25T19:05:02.695Z,1415.63
2022-12-25T19:07:30.873Z,937.03
2022-12-25T19:09:58.958Z,1652.50
2022-12-25T19:12:27.061Z,567.93
2022-12-25T19:14:55.131Z,762.57
2022-12-25T19:17:31.379Z,536.77
2022-12-25T19:20:00.158Z,857.63
2022-12-25T19:22:28.397Z,908.40
2022-12-25T19:24:56.466Z,83.23
2022-12-25T19:27:24.520Z,248.70
2022-12-25T19:29:52.714Z,787.60
2022-12-25T19:32:20.999Z,473.77
2022-12-25T19:34:50.509Z,484.13
2022-12-25T19:37:18.706Z,791.23
2022-12-25T19:39:47.073Z,468.40
2022-12-25T19:42:16.119Z,807.57
2022-12-25T19:44:44.518Z,1238.13
2022-12-25T19:47:12.903Z,589.70
2022-12-25T19:49:43.714Z,1888.77
2022-12-25T19:52:14.050Z,1151.33
2022-12-25T19:54:42.167Z,1569.70
2022-12-25T19:57:10.290Z,1999.90
2022-12-25T19:59:38.380Z,1217.13
2022-12-25T20:02:06.539Z,1951.97
2022-12-25T20:04:34.821Z,1414.77
2022-12-25T20:07:02.862Z,1724.57
2022-12-25T20:09:32.782Z,1463.20
2022-12-25T20:12:00.859Z,1287.80
2022-12-25T20:14:28.948Z,257.23
2022-12-25T20:16:57.103Z,1489.80
2022-12-25T20:19:25.479Z,1955.57
2022-12-25T20:21:54.963Z,486.47
2022-12-25T20:24:24.696Z,943.70
2022-12-25T20:26:59.010Z,967.73
2022-12-25T20:29:27.619Z,1627.90
2022-12-25T20:31:55.875Z,1272.37
2022-12-25T20:34:24.112Z,514.97
2022-12-25T20:36:52.339Z,996.27
2022-12-25T20:39:20.469Z,801.63
2022-12-25T20:41:48.650Z,1411.10
2022-12-25T20:44:18.244Z,793.53
2022-12-25T20:46:46.574Z,933.23
2022-12-25T20:49:14.797Z,650.50
2022-12-25T20:51:43.056Z,618.03
2022-12-25T20:54:12.766Z,1205.03
2022-12-25T20:56:40.838Z,1447.13
2022-12-25T20:59:11.627Z,815.93
2022-12-25T21:01:41.156Z,1166.33
2022-12-25T21:04:14.471Z,1884.27
2022-12-25T21:06:44.177Z,670.27
2022-12-25T21:09:12.274Z,1155.33
2022-12-25T21:11:40.358Z,1421.10
2022-12-25T21:14:08.500Z,792.27
2022-12-25T21:16:37.393Z,818.07
2022-12-25T21:19:07.615Z,1270.33
2022-12-25T21:21:36.464Z,977.67
2022-12-25T21:24:05.661Z,208.70
2022-12-25T21:26:33.828Z,694.27
2022-12-25T21:29:03.627Z,621.17
2022-12-25T21:31:52.353Z,651.33
2022-12-25T21:34:20.975Z,878.83
2022-12-25T21:36:49.163Z,1965.50
2022-12-25T21:39:17.281Z,1210.33
2022-12-25T21:41:45.494Z,900.73
2022-12-25T21:44:13.634Z,1007.87
2022-12-25T21:46:41.766Z,1999.90
2022-12-25T21:49:10.802Z,1999.90
2022-12-25T21:51:57.648Z,932.03
2022-12-25T21:54:26.004Z,1485.93
2022-12-25T21:56:54.173Z,1038.40
2022-12-25T21:59:23.338Z,1996.00
2022-12-25T22:01:53.073Z,1999.90
2022-12-25T22:04:23.253Z,1494.07
2022-12-25T22:07:10.822Z,1601.00
2022-12-25T22:09:39.172Z,1280.57
2022-12-25T22:12:31.924Z,522.77
2022-12-25T22:15:07.073Z,1113.97
2022-12-25T22:17:55.179Z,1999.90
2022-12-25T22:20:26.200Z,605.50
2022-12-25T22:22:56.198Z,1531.93
2022-12-25T22:25:25.678Z,596.00
2022-12-25T22:27:54.361Z,456.50
2022-12-25T22:30:26.354Z,406.43
2022-12-25T22:32:54.652Z,1699.93
2022-12-25T22:35:23.242Z,1999.90
2022-12-25T22:37:51.428Z,1999.90
2022-12-25T22:40:21.851Z,1999.90
2022-12-25T22:42:49.928Z,1999.90
2022-12-25T22:45:18.223Z,1999.90
2022-12-25T22:47:46.267Z,1987.60
2022-12-25T22:50:15.697Z,1482.50
2022-12-25T22:52:45.761Z,1999.90
2022-12-25T22:55:18.045Z,1999.90
2022-12-25T22:57:48.956Z,1999.90
2022-12-25T23:00:17.145Z,1999.90
2022-12-25T23:02:45.383Z,1819.73
2022-12-25T23:05:13.654Z,1999.90
2022-12-25T23:07:41.987Z,1999.90
2022-12-25T23:10:10.640Z,1608.73
2022-12-25T23:12:55.913Z,1999.90
2022-12-25T23:15:27.611Z,1623.30
2022-12-25T23:18:13.574Z,1964.13
2022-12-25T23:20:59.499Z,1989.40
2022-12-25T23:23:45.150Z,1999.90
2022-12-25T23:26:14.609Z,1999.90
2022-12-25T23:29:01.765Z,1999.90
2022-12-25T23:31:33.772Z,1952.33
2022-12-25T23:34:02.280Z,1999.90
2022-12-25T23:36:30.339Z,1999.90
2022-12-25T23:39:04.730Z,1999.90
2022-12-25T23:41:36.996Z,1999.90
2022-12-25T23:44:05.593Z,1999.90
2022-12-25T23:46:35.382Z,1999.90
2022-12-25T23:49:03.537Z,1861.10
2022-12-25T23:51:31.607Z,1999.90
2022-12-25T23:53:59.676Z,1252.10
2022-12-25T23:56:27.756Z,1999.90
2022-12-25T23:58:55.814Z,1999.90
